sensor_id;sensor_type;location;lat;lon;timestamp;temperature;humidity
837;DHT22;400;53.550;9.932;2023-08-07T00:01:34;16.90;1.00
837;DHT22;400;53.550;9.932;2023-08-07T00:04:03;16.90;1.00
837;DHT22;400;53.550;9.932;2023-08-07T00:06:30;16.90;1.00
837;DHT22;400;53.550;9.932;2023-08-07T00:08:58;16.80;1.00
837;DHT22;400;53.550;9.932;2023-08-07T00:11:24;16.90;1.00
837;DHT22;400;53.550;9.932;2023-08-07T00:13:53;16.80;1.00
837;DHT22;400;53.550;9.932;2023-08-07T00:16:21;16.80;1.00
837;DHT22;400;53.550;9.932;2023-08-07T00:18:48;16.80;1.00
837;DHT22;400;53.550;9.932;2023-08-07T00:21:15;16.70;1.00
837;DHT22;400;53.550;9.932;2023-08-07T00:23:42;16.70;1.00
837;DHT22;400;53.550;9.932;2023-08-07T00:26:10;16.70;1.00
837;DHT22;400;53.550;9.932;2023-08-07T00:28:36;16.70;1.00
837;DHT22;400;53.550;9.932;2023-08-07T00:31:03;16.70;1.00
837;DHT22;400;53.550;9.932;2023-08-07T00:33:30;16.60;1.00
837;DHT22;400;53.550;9.932;2023-08-07T00:35:57;16.50;1.00
837;DHT22;400;53.550;9.932;2023-08-07T00:38:24;16.50;1.00
837;DHT22;400;53.550;9.932;2023-08-07T00:40:51;16.60;1.00
837;DHT22;400;53.550;9.932;2023-08-07T00:43:19;16.60;1.00
837;DHT22;400;53.550;9.932;2023-08-07T00:45:46;16.60;1.00
837;DHT22;400;53.550;9.932;2023-08-07T00:48:15;16.60;1.00
837;DHT22;400;53.550;9.932;2023-08-07T00:50:44;16.50;1.00
837;DHT22;400;53.550;9.932;2023-08-07T00:53:12;16.50;1.00
837;DHT22;400;53.550;9.932;2023-08-07T00:55:40;16.40;1.00
837;DHT22;400;53.550;9.932;2023-08-07T00:58:08;16.40;1.00
837;DHT22;400;53.550;9.932;2023-08-07T01:00:37;16.40;1.00
837;DHT22;400;53.550;9.932;2023-08-07T01:03:07;16.40;1.00
837;DHT22;400;53.550;9.932;2023-08-07T01:05:34;16.40;1.00
837;DHT22;400;53.550;9.932;2023-08-07T01:08:02;16.40;1.00
837;DHT22;400;53.550;9.932;2023-08-07T01:10:34;16.30;1.00
837;DHT22;400;53.550;9.932;2023-08-07T01:13:07;16.30;1.00
837;DHT22;400;53.550;9.932;2023-08-07T01:15:39;16.30;1.00
837;DHT22;400;53.550;9.932;2023-08-07T01:18:07;16.30;1.00
837;DHT22;400;53.550;9.932;2023-08-07T01:20:34;16.30;1.00
837;DHT22;400;53.550;9.932;2023-08-07T01:23:03;16.30;1.00
837;DHT22;400;53.550;9.932;2023-08-07T01:25:30;16.30;1.00
837;DHT22;400;53.550;9.932;2023-08-07T01:28:02;16.30;1.00
837;DHT22;400;53.550;9.932;2023-08-07T01:30:36;16.30;1.00
837;DHT22;400;53.550;9.932;2023-08-07T01:33:09;16.30;1.00
837;DHT22;400;53.550;9.932;2023-08-07T01:35:41;16.30;1.00
837;DHT22;400;53.550;9.932;2023-08-07T01:38:11;16.30;1.00
837;DHT22;400;53.550;9.932;2023-08-07T01:40:39;16.30;1.00
837;DHT22;400;53.550;9.932;2023-08-07T01:43:07;16.30;1.00
837;DHT22;400;53.550;9.932;2023-08-07T01:45:34;16.30;1.00
837;DHT22;400;53.550;9.932;2023-08-07T01:48:01;16.30;1.00
837;DHT22;400;53.550;9.932;2023-08-07T01:50:29;16.20;1.00
837;DHT22;400;53.550;9.932;2023-08-07T01:52:56;16.20;1.00
837;DHT22;400;53.550;9.932;2023-08-07T01:55:24;16.20;1.00
837;DHT22;400;53.550;9.932;2023-08-07T01:57:51;16.20;1.00
837;DHT22;400;53.550;9.932;2023-08-07T02:00:18;16.20;1.00
837;DHT22;400;53.550;9.932;2023-08-07T02:02:45;16.20;1.00
837;DHT22;400;53.550;9.932;2023-08-07T02:05:12;16.20;1.00
837;DHT22;400;53.550;9.932;2023-08-07T02:07:39;16.20;1.00
837;DHT22;400;53.550;9.932;2023-08-07T02:10:06;16.10;1.00
837;DHT22;400;53.550;9.932;2023-08-07T02:12:35;16.20;1.00
837;DHT22;400;53.550;9.932;2023-08-07T02:15:02;16.20;1.00
837;DHT22;400;53.550;9.932;2023-08-07T02:17:29;16.10;1.00
837;DHT22;400;53.550;9.932;2023-08-07T02:19:56;16.10;1.00
837;DHT22;400;53.550;9.932;2023-08-07T02:22:23;16.20;1.00
837;DHT22;400;53.550;9.932;2023-08-07T02:24:50;16.10;1.00
837;DHT22;400;53.550;9.932;2023-08-07T02:27:17;16.10;1.00
837;DHT22;400;53.550;9.932;2023-08-07T02:29:45;16.10;1.00
837;DHT22;400;53.550;9.932;2023-08-07T02:32:12;16.10;1.00
837;DHT22;400;53.550;9.932;2023-08-07T02:34:39;16.10;1.00
837;DHT22;400;53.550;9.932;2023-08-07T02:37:05;16.10;1.00
837;DHT22;400;53.550;9.932;2023-08-07T02:39:32;16.10;1.00
837;DHT22;400;53.550;9.932;2023-08-07T02:41:59;16.00;1.00
837;DHT22;400;53.550;9.932;2023-08-07T02:44:26;16.10;1.00
837;DHT22;400;53.550;9.932;2023-08-07T02:46:54;16.10;1.00
837;DHT22;400;53.550;9.932;2023-08-07T02:49:21;16.10;1.00
837;DHT22;400;53.550;9.932;2023-08-07T02:51:48;16.10;1.00
837;DHT22;400;53.550;9.932;2023-08-07T02:54:15;16.00;1.00
837;DHT22;400;53.550;9.932;2023-08-07T02:56:42;16.00;1.00
837;DHT22;400;53.550;9.932;2023-08-07T02:59:09;16.00;1.00
837;DHT22;400;53.550;9.932;2023-08-07T03:01:36;16.00;1.00
837;DHT22;400;53.550;9.932;2023-08-07T03:04:04;16.00;1.00
837;DHT22;400;53.550;9.932;2023-08-07T03:06:31;16.00;1.00
837;DHT22;400;53.550;9.932;2023-08-07T03:08:57;16.00;1.00
837;DHT22;400;53.550;9.932;2023-08-07T03:11:24;16.00;1.00
837;DHT22;400;53.550;9.932;2023-08-07T03:13:53;16.00;1.00
837;DHT22;400;53.550;9.932;2023-08-07T03:16:19;16.00;1.00
837;DHT22;400;53.550;9.932;2023-08-07T03:18:46;16.00;1.00
837;DHT22;400;53.550;9.932;2023-08-07T03:21:16;16.00;1.00
837;DHT22;400;53.550;9.932;2023-08-07T03:23:44;16.00;1.00
837;DHT22;400;53.550;9.932;2023-08-07T03:26:12;15.90;1.00
837;DHT22;400;53.550;9.932;2023-08-07T03:28:39;15.90;1.00
837;DHT22;400;53.550;9.932;2023-08-07T03:31:06;16.00;1.00
837;DHT22;400;53.550;9.932;2023-08-07T03:33:33;15.90;1.00
837;DHT22;400;53.550;9.932;2023-08-07T03:35:59;15.90;1.00
837;DHT22;400;53.550;9.932;2023-08-07T03:38:28;16.00;1.00
837;DHT22;400;53.550;9.932;2023-08-07T03:40:56;16.00;1.00
837;DHT22;400;53.550;9.932;2023-08-07T03:43:23;16.00;1.00
837;DHT22;400;53.550;9.932;2023-08-07T03:45:54;16.00;1.00
837;DHT22;400;53.550;9.932;2023-08-07T03:48:22;16.00;1.00
837;DHT22;400;53.550;9.932;2023-08-07T03:50:49;16.00;1.00
837;DHT22;400;53.550;9.932;2023-08-07T03:53:16;16.00;1.00
837;DHT22;400;53.550;9.932;2023-08-07T03:55:49;16.00;1.00
837;DHT22;400;53.550;9.932;2023-08-07T03:58:16;16.00;1.00
837;DHT22;400;53.550;9.932;2023-08-07T04:00:43;16.00;1.00
837;DHT22;400;53.550;9.932;2023-08-07T04:03:09;16.00;1.00
837;DHT22;400;53.550;9.932;2023-08-07T04:05:36;16.00;1.00
837;DHT22;400;53.550;9.932;2023-08-07T04:08:04;16.00;1.00
837;DHT22;400;53.550;9.932;2023-08-07T04:10:30;16.00;1.00
837;DHT22;400;53.550;9.932;2023-08-07T04:12:58;16.00;1.00
837;DHT22;400;53.550;9.932;2023-08-07T04:15:26;16.00;1.00
837;DHT22;400;53.550;9.932;2023-08-07T04:17:53;16.00;1.00
837;DHT22;400;53.550;9.932;2023-08-07T04:20:20;16.00;1.00
837;DHT22;400;53.550;9.932;2023-08-07T04:22:46;16.10;1.00
837;DHT22;400;53.550;9.932;2023-08-07T04:25:13;16.10;1.00
837;DHT22;400;53.550;9.932;2023-08-07T04:27:42;16.10;1.00
837;DHT22;400;53.550;9.932;2023-08-07T04:30:12;16.10;1.00
837;DHT22;400;53.550;9.932;2023-08-07T04:32:39;16.10;1.00
837;DHT22;400;53.550;9.932;2023-08-07T04:35:08;16.10;1.00
837;DHT22;400;53.550;9.932;2023-08-07T04:37:34;16.10;1.00
837;DHT22;400;53.550;9.932;2023-08-07T04:40:01;16.10;1.00
837;DHT22;400;53.550;9.932;2023-08-07T04:42:28;16.10;1.00
837;DHT22;400;53.550;9.932;2023-08-07T04:44:58;16.10;1.00
837;DHT22;400;53.550;9.932;2023-08-07T04:47:28;16.20;1.00
837;DHT22;400;53.550;9.932;2023-08-07T04:49:54;16.20;1.00
837;DHT22;400;53.550;9.932;2023-08-07T04:52:21;16.20;1.00
837;DHT22;400;53.550;9.932;2023-08-07T04:54:51;16.30;1.00
837;DHT22;400;53.550;9.932;2023-08-07T04:57:17;16.30;1.00
837;DHT22;400;53.550;9.932;2023-08-07T04:59:44;16.20;1.00
837;DHT22;400;53.550;9.932;2023-08-07T05:02:11;16.30;1.00
837;DHT22;400;53.550;9.932;2023-08-07T05:04:39;16.30;1.00
837;DHT22;400;53.550;9.932;2023-08-07T05:07:06;16.30;1.00
837;DHT22;400;53.550;9.932;2023-08-07T05:09:33;16.30;1.00
837;DHT22;400;53.550;9.932;2023-08-07T05:12:00;16.40;1.00
837;DHT22;400;53.550;9.932;2023-08-07T05:14:28;16.30;1.00
837;DHT22;400;53.550;9.932;2023-08-07T05:16:55;16.40;1.00
837;DHT22;400;53.550;9.932;2023-08-07T05:19:22;16.50;1.00
837;DHT22;400;53.550;9.932;2023-08-07T05:21:50;16.50;1.00
837;DHT22;400;53.550;9.932;2023-08-07T05:24:17;16.50;1.00
837;DHT22;400;53.550;9.932;2023-08-07T05:26:44;16.50;1.00
837;DHT22;400;53.550;9.932;2023-08-07T05:29:11;16.50;1.00
837;DHT22;400;53.550;9.932;2023-08-07T05:31:38;16.50;1.00
837;DHT22;400;53.550;9.932;2023-08-07T05:34:05;16.50;1.00
837;DHT22;400;53.550;9.932;2023-08-07T05:36:32;16.50;1.00
837;DHT22;400;53.550;9.932;2023-08-07T05:39:00;16.60;1.00
837;DHT22;400;53.550;9.932;2023-08-07T05:41:27;16.60;1.00
837;DHT22;400;53.550;9.932;2023-08-07T05:43:54;16.60;1.00
837;DHT22;400;53.550;9.932;2023-08-07T05:46:20;16.60;1.00
837;DHT22;400;53.550;9.932;2023-08-07T05:48:47;16.60;1.00
837;DHT22;400;53.550;9.932;2023-08-07T05:51:14;16.70;1.00
837;DHT22;400;53.550;9.932;2023-08-07T05:53:41;16.60;1.00
837;DHT22;400;53.550;9.932;2023-08-07T05:56:09;16.60;1.00
837;DHT22;400;53.550;9.932;2023-08-07T05:58:36;16.70;1.00
837;DHT22;400;53.550;9.932;2023-08-07T06:01:03;16.70;1.00
837;DHT22;400;53.550;9.932;2023-08-07T06:03:31;16.80;1.00
837;DHT22;400;53.550;9.932;2023-08-07T06:05:58;16.90;1.00
837;DHT22;400;53.550;9.932;2023-08-07T06:08:25;17.00;1.00
837;DHT22;400;53.550;9.932;2023-08-07T06:10:52;17.00;1.00
837;DHT22;400;53.550;9.932;2023-08-07T06:13:20;16.90;1.00
837;DHT22;400;53.550;9.932;2023-08-07T06:15:47;16.90;1.00
837;DHT22;400;53.550;9.932;2023-08-07T06:18:14;16.90;1.00
837;DHT22;400;53.550;9.932;2023-08-07T06:20:41;17.00;1.00
837;DHT22;400;53.550;9.932;2023-08-07T06:23:09;17.00;1.00
837;DHT22;400;53.550;9.932;2023-08-07T06:25:37;17.10;1.00
837;DHT22;400;53.550;9.932;2023-08-07T06:28:04;17.10;1.00
837;DHT22;400;53.550;9.932;2023-08-07T06:30:32;17.10;1.00
837;DHT22;400;53.550;9.932;2023-08-07T06:33:00;17.10;1.00
837;DHT22;400;53.550;9.932;2023-08-07T06:35:30;17.10;1.00
837;DHT22;400;53.550;9.932;2023-08-07T06:37:58;17.20;1.00
837;DHT22;400;53.550;9.932;2023-08-07T06:40:25;17.10;1.00
837;DHT22;400;53.550;9.932;2023-08-07T06:42:52;17.30;1.00
837;DHT22;400;53.550;9.932;2023-08-07T06:45:19;17.30;1.00
837;DHT22;400;53.550;9.932;2023-08-07T06:47:49;17.30;1.00
837;DHT22;400;53.550;9.932;2023-08-07T06:50:15;17.30;1.00
837;DHT22;400;53.550;9.932;2023-08-07T06:52:42;17.20;1.00
837;DHT22;400;53.550;9.932;2023-08-07T06:55:09;17.30;1.00
837;DHT22;400;53.550;9.932;2023-08-07T06:57:36;17.30;1.00
837;DHT22;400;53.550;9.932;2023-08-07T07:00:03;17.30;1.00
837;DHT22;400;53.550;9.932;2023-08-07T07:02:32;17.30;1.00
837;DHT22;400;53.550;9.932;2023-08-07T07:05:03;17.30;1.00
837;DHT22;400;53.550;9.932;2023-08-07T07:07:31;17.40;1.00
837;DHT22;400;53.550;9.932;2023-08-07T07:09:58;17.40;1.00
837;DHT22;400;53.550;9.932;2023-08-07T07:12:26;17.20;1.00
837;DHT22;400;53.550;9.932;2023-08-07T07:14:53;17.00;1.00
837;DHT22;400;53.550;9.932;2023-08-07T07:17:20;16.90;1.00
837;DHT22;400;53.550;9.932;2023-08-07T07:19:47;16.80;1.00
837;DHT22;400;53.550;9.932;2023-08-07T07:22:15;16.80;1.00
837;DHT22;400;53.550;9.932;2023-08-07T07:24:42;16.80;1.00
837;DHT22;400;53.550;9.932;2023-08-07T07:27:12;16.90;1.00
837;DHT22;400;53.550;9.932;2023-08-07T07:29:45;16.90;1.00
837;DHT22;400;53.550;9.932;2023-08-07T07:32:15;16.90;1.00
837;DHT22;400;53.550;9.932;2023-08-07T07:34:45;16.90;1.00
837;DHT22;400;53.550;9.932;2023-08-07T07:37:18;16.90;1.00
837;DHT22;400;53.550;9.932;2023-08-07T07:39:46;16.70;1.00
837;DHT22;400;53.550;9.932;2023-08-07T07:42:13;16.90;1.00
837;DHT22;400;53.550;9.932;2023-08-07T07:44:40;16.70;1.00
837;DHT22;400;53.550;9.932;2023-08-07T07:47:07;17.00;1.00
837;DHT22;400;53.550;9.932;2023-08-07T07:49:34;17.00;1.00
837;DHT22;400;53.550;9.932;2023-08-07T07:52:01;17.20;1.00
837;DHT22;400;53.550;9.932;2023-08-07T07:54:29;17.30;1.00
837;DHT22;400;53.550;9.932;2023-08-07T07:56:56;17.40;1.00
837;DHT22;400;53.550;9.932;2023-08-07T07:59:23;17.40;1.00
837;DHT22;400;53.550;9.932;2023-08-07T08:01:50;17.60;1.00
837;DHT22;400;53.550;9.932;2023-08-07T08:04:17;17.70;1.00
837;DHT22;400;53.550;9.932;2023-08-07T08:06:44;17.70;1.00
837;DHT22;400;53.550;9.932;2023-08-07T08:09:13;17.70;1.00
837;DHT22;400;53.550;9.932;2023-08-07T08:11:42;17.60;1.00
837;DHT22;400;53.550;9.932;2023-08-07T08:14:09;17.10;1.00
837;DHT22;400;53.550;9.932;2023-08-07T08:16:37;16.90;1.00
837;DHT22;400;53.550;9.932;2023-08-07T08:19:04;16.90;1.00
837;DHT22;400;53.550;9.932;2023-08-07T08:21:33;16.90;1.00
837;DHT22;400;53.550;9.932;2023-08-07T08:24:00;17.00;1.00
837;DHT22;400;53.550;9.932;2023-08-07T08:26:27;17.00;1.00
837;DHT22;400;53.550;9.932;2023-08-07T08:28:56;16.90;1.00
837;DHT22;400;53.550;9.932;2023-08-07T08:31:23;16.90;1.00
837;DHT22;400;53.550;9.932;2023-08-07T08:33:49;16.90;1.00
837;DHT22;400;53.550;9.932;2023-08-07T08:36:17;16.90;1.00
837;DHT22;400;53.550;9.932;2023-08-07T08:38:45;17.00;1.00
837;DHT22;400;53.550;9.932;2023-08-07T08:41:13;16.90;1.00
837;DHT22;400;53.550;9.932;2023-08-07T08:43:41;16.80;1.00
837;DHT22;400;53.550;9.932;2023-08-07T08:46:10;17.10;1.00
837;DHT22;400;53.550;9.932;2023-08-07T08:48:39;17.00;1.00
837;DHT22;400;53.550;9.932;2023-08-07T08:51:09;17.20;1.00
837;DHT22;400;53.550;9.932;2023-08-07T08:53:43;17.30;1.00
837;DHT22;400;53.550;9.932;2023-08-07T08:56:15;17.30;1.00
837;DHT22;400;53.550;9.932;2023-08-07T08:58:46;17.40;1.00
837;DHT22;400;53.550;9.932;2023-08-07T09:01:19;17.40;1.00
837;DHT22;400;53.550;9.932;2023-08-07T09:03:49;17.30;1.00
837;DHT22;400;53.550;9.932;2023-08-07T09:06:18;17.30;1.00
837;DHT22;400;53.550;9.932;2023-08-07T09:08:45;17.60;1.00
837;DHT22;400;53.550;9.932;2023-08-07T09:11:16;17.60;1.00
837;DHT22;400;53.550;9.932;2023-08-07T09:13:45;17.60;1.00
837;DHT22;400;53.550;9.932;2023-08-07T09:16:16;17.90;1.00
837;DHT22;400;53.550;9.932;2023-08-07T09:18:43;17.90;1.00
837;DHT22;400;53.550;9.932;2023-08-07T09:21:11;17.80;1.00
837;DHT22;400;53.550;9.932;2023-08-07T09:23:43;17.80;1.00
837;DHT22;400;53.550;9.932;2023-08-07T09:26:10;17.80;1.00
837;DHT22;400;53.550;9.932;2023-08-07T09:28:41;18.10;1.00
837;DHT22;400;53.550;9.932;2023-08-07T09:31:16;18.20;1.00
837;DHT22;400;53.550;9.932;2023-08-07T09:33:47;18.20;1.00
837;DHT22;400;53.550;9.932;2023-08-07T09:36:14;18.30;1.00
837;DHT22;400;53.550;9.932;2023-08-07T09:38:42;18.30;1.00
837;DHT22;400;53.550;9.932;2023-08-07T09:41:10;18.40;1.00
837;DHT22;400;53.550;9.932;2023-08-07T09:43:38;18.40;1.00
837;DHT22;400;53.550;9.932;2023-08-07T09:46:06;18.50;1.00
837;DHT22;400;53.550;9.932;2023-08-07T09:48:39;18.60;1.00
837;DHT22;400;53.550;9.932;2023-08-07T09:51:09;18.40;1.00
837;DHT22;400;53.550;9.932;2023-08-07T09:53:38;18.50;1.00
837;DHT22;400;53.550;9.932;2023-08-07T09:56:06;18.50;1.00
837;DHT22;400;53.550;9.932;2023-08-07T09:58:33;18.40;1.00
837;DHT22;400;53.550;9.932;2023-08-07T10:01:02;18.40;1.00
837;DHT22;400;53.550;9.932;2023-08-07T10:03:29;18.30;1.00
837;DHT22;400;53.550;9.932;2023-08-07T10:06:03;18.50;1.00
837;DHT22;400;53.550;9.932;2023-08-07T10:08:34;18.60;1.00
837;DHT22;400;53.550;9.932;2023-08-07T10:11:07;18.70;1.00
837;DHT22;400;53.550;9.932;2023-08-07T10:13:38;18.70;1.00
837;DHT22;400;53.550;9.932;2023-08-07T10:16:09;19.00;1.00
837;DHT22;400;53.550;9.932;2023-08-07T10:18:37;19.10;1.00
837;DHT22;400;53.550;9.932;2023-08-07T10:21:06;19.20;1.00
837;DHT22;400;53.550;9.932;2023-08-07T10:23:35;19.10;1.00
837;DHT22;400;53.550;9.932;2023-08-07T10:26:04;19.20;1.00
837;DHT22;400;53.550;9.932;2023-08-07T10:28:35;19.30;1.00
837;DHT22;400;53.550;9.932;2023-08-07T10:31:06;19.30;1.00
837;DHT22;400;53.550;9.932;2023-08-07T10:33:38;19.10;1.00
837;DHT22;400;53.550;9.932;2023-08-07T10:36:09;18.80;1.00
837;DHT22;400;53.550;9.932;2023-08-07T10:38:36;18.60;1.00
837;DHT22;400;53.550;9.932;2023-08-07T10:41:06;18.40;1.00
837;DHT22;400;53.550;9.932;2023-08-07T10:43:37;18.30;1.00
837;DHT22;400;53.550;9.932;2023-08-07T10:46:05;18.40;1.00
837;DHT22;400;53.550;9.932;2023-08-07T10:48:38;18.20;1.00
837;DHT22;400;53.550;9.932;2023-08-07T10:51:06;18.30;1.00
837;DHT22;400;53.550;9.932;2023-08-07T10:53:35;18.40;1.00
837;DHT22;400;53.550;9.932;2023-08-07T10:56:04;18.90;1.00
837;DHT22;400;53.550;9.932;2023-08-07T10:58:36;19.10;1.00
837;DHT22;400;53.550;9.932;2023-08-07T11:01:19;19.20;1.00
837;DHT22;400;53.550;9.932;2023-08-07T11:03:48;19.00;1.00
837;DHT22;400;53.550;9.932;2023-08-07T11:06:17;18.90;1.00
837;DHT22;400;53.550;9.932;2023-08-07T11:08:51;19.10;1.00
837;DHT22;400;53.550;9.932;2023-08-07T11:11:23;18.80;1.00
837;DHT22;400;53.550;9.932;2023-08-07T11:13:50;19.10;1.00
837;DHT22;400;53.550;9.932;2023-08-07T11:16:17;19.00;1.00
837;DHT22;400;53.550;9.932;2023-08-07T11:18:47;18.90;1.00
837;DHT22;400;53.550;9.932;2023-08-07T11:21:16;18.70;1.00
837;DHT22;400;53.550;9.932;2023-08-07T11:23:43;18.30;1.00
837;DHT22;400;53.550;9.932;2023-08-07T11:26:13;18.10;1.00
837;DHT22;400;53.550;9.932;2023-08-07T11:28:40;17.60;1.00
837;DHT22;400;53.550;9.932;2023-08-07T11:31:07;17.50;1.00
837;DHT22;400;53.550;9.932;2023-08-07T11:33:36;17.30;1.00
837;DHT22;400;53.550;9.932;2023-08-07T11:36:03;17.40;1.00
837;DHT22;400;53.550;9.932;2023-08-07T11:38:38;17.50;1.00
837;DHT22;400;53.550;9.932;2023-08-07T11:41:06;17.60;1.00
837;DHT22;400;53.550;9.932;2023-08-07T11:43:35;17.80;1.00
837;DHT22;400;53.550;9.932;2023-08-07T11:46:03;18.10;1.00
837;DHT22;400;53.550;9.932;2023-08-07T11:48:33;18.10;1.00
837;DHT22;400;53.550;9.932;2023-08-07T11:51:00;17.90;1.00
837;DHT22;400;53.550;9.932;2023-08-07T11:53:30;18.10;1.00
837;DHT22;400;53.550;9.932;2023-08-07T11:55:59;17.50;1.00
837;DHT22;400;53.550;9.932;2023-08-07T11:58:31;17.30;1.00
837;DHT22;400;53.550;9.932;2023-08-07T12:01:03;17.20;1.00
837;DHT22;400;53.550;9.932;2023-08-07T12:03:31;17.20;1.00
837;DHT22;400;53.550;9.932;2023-08-07T12:06:02;17.40;1.00
837;DHT22;400;53.550;9.932;2023-08-07T12:08:31;17.30;1.00
837;DHT22;400;53.550;9.932;2023-08-07T12:11:01;17.50;1.00
837;DHT22;400;53.550;9.932;2023-08-07T12:13:29;17.30;1.00
837;DHT22;400;53.550;9.932;2023-08-07T12:15:57;17.30;1.00
837;DHT22;400;53.550;9.932;2023-08-07T12:18:27;17.00;1.00
837;DHT22;400;53.550;9.932;2023-08-07T12:20:57;16.70;1.00
837;DHT22;400;53.550;9.932;2023-08-07T12:23:25;16.80;1.00
837;DHT22;400;53.550;9.932;2023-08-07T12:25:54;17.10;1.00
837;DHT22;400;53.550;9.932;2023-08-07T12:28:27;17.10;1.00
837;DHT22;400;53.550;9.932;2023-08-07T12:30:56;17.10;1.00
837;DHT22;400;53.550;9.932;2023-08-07T12:33:23;17.30;1.00
837;DHT22;400;53.550;9.932;2023-08-07T12:35:51;17.10;1.00
837;DHT22;400;53.550;9.932;2023-08-07T12:38:21;17.20;1.00
837;DHT22;400;53.550;9.932;2023-08-07T12:40:52;17.50;1.00
837;DHT22;400;53.550;9.932;2023-08-07T12:43:29;17.30;1.00
837;DHT22;400;53.550;9.932;2023-08-07T12:45:59;17.30;1.00
837;DHT22;400;53.550;9.932;2023-08-07T12:48:29;17.50;1.00
837;DHT22;400;53.550;9.932;2023-08-07T12:51:00;17.40;1.00
837;DHT22;400;53.550;9.932;2023-08-07T12:53:26;17.30;1.00
837;DHT22;400;53.550;9.932;2023-08-07T12:55:54;17.40;1.00
837;DHT22;400;53.550;9.932;2023-08-07T12:58:21;17.40;1.00
837;DHT22;400;53.550;9.932;2023-08-07T13:00:51;17.30;1.00
837;DHT22;400;53.550;9.932;2023-08-07T13:03:17;17.40;1.00
837;DHT22;400;53.550;9.932;2023-08-07T13:05:44;17.00;1.00
837;DHT22;400;53.550;9.932;2023-08-07T13:08:13;16.80;1.00
837;DHT22;400;53.550;9.932;2023-08-07T13:10:39;16.90;1.00
837;DHT22;400;53.550;9.932;2023-08-07T13:13:09;16.80;1.00
837;DHT22;400;53.550;9.932;2023-08-07T13:15:37;17.10;1.00
837;DHT22;400;53.550;9.932;2023-08-07T13:18:04;17.10;1.00
837;DHT22;400;53.550;9.932;2023-08-07T13:20:31;17.10;1.00
837;DHT22;400;53.550;9.932;2023-08-07T13:23:00;17.00;1.00
837;DHT22;400;53.550;9.932;2023-08-07T13:25:29;17.10;1.00
837;DHT22;400;53.550;9.932;2023-08-07T13:27:56;17.20;1.00
837;DHT22;400;53.550;9.932;2023-08-07T13:30:23;17.40;1.00
837;DHT22;400;53.550;9.932;2023-08-07T13:32:49;17.40;1.00
837;DHT22;400;53.550;9.932;2023-08-07T13:35:16;17.50;1.00
837;DHT22;400;53.550;9.932;2023-08-07T13:37:43;17.60;1.00
837;DHT22;400;53.550;9.932;2023-08-07T13:40:10;17.60;1.00
837;DHT22;400;53.550;9.932;2023-08-07T13:42:40;17.50;1.00
837;DHT22;400;53.550;9.932;2023-08-07T13:45:11;17.60;1.00
837;DHT22;400;53.550;9.932;2023-08-07T13:47:42;17.70;1.00
837;DHT22;400;53.550;9.932;2023-08-07T13:50:09;17.70;1.00
837;DHT22;400;53.550;9.932;2023-08-07T13:52:38;17.80;1.00
837;DHT22;400;53.550;9.932;2023-08-07T13:55:08;17.80;1.00
837;DHT22;400;53.550;9.932;2023-08-07T13:57:37;17.70;1.00
837;DHT22;400;53.550;9.932;2023-08-07T14:00:07;17.70;1.00
837;DHT22;400;53.550;9.932;2023-08-07T14:02:38;17.90;1.00
837;DHT22;400;53.550;9.932;2023-08-07T14:05:05;17.70;1.00
837;DHT22;400;53.550;9.932;2023-08-07T14:07:32;17.80;1.00
837;DHT22;400;53.550;9.932;2023-08-07T14:09:59;17.70;1.00
837;DHT22;400;53.550;9.932;2023-08-07T14:12:25;17.80;1.00
837;DHT22;400;53.550;9.932;2023-08-07T14:14:52;17.70;1.00
837;DHT22;400;53.550;9.932;2023-08-07T14:17:23;17.80;1.00
837;DHT22;400;53.550;9.932;2023-08-07T14:19:51;17.80;1.00
837;DHT22;400;53.550;9.932;2023-08-07T14:22:21;17.70;1.00
837;DHT22;400;53.550;9.932;2023-08-07T14:24:48;17.60;1.00
837;DHT22;400;53.550;9.932;2023-08-07T14:27:17;17.40;1.00
837;DHT22;400;53.550;9.932;2023-08-07T14:29:44;17.40;1.00
837;DHT22;400;53.550;9.932;2023-08-07T14:32:11;17.40;1.00
837;DHT22;400;53.550;9.932;2023-08-07T14:34:39;17.50;1.00
837;DHT22;400;53.550;9.932;2023-08-07T14:37:06;17.40;1.00
837;DHT22;400;53.550;9.932;2023-08-07T14:39:33;17.40;1.00
837;DHT22;400;53.550;9.932;2023-08-07T14:42:00;17.40;1.00
837;DHT22;400;53.550;9.932;2023-08-07T14:44:26;17.30;1.00
837;DHT22;400;53.550;9.932;2023-08-07T14:46:55;17.40;1.00
837;DHT22;400;53.550;9.932;2023-08-07T14:49:22;17.70;1.00
837;DHT22;400;53.550;9.932;2023-08-07T14:51:50;17.70;1.00
837;DHT22;400;53.550;9.932;2023-08-07T14:54:17;17.70;1.00
837;DHT22;400;53.550;9.932;2023-08-07T14:56:47;17.70;1.00
837;DHT22;400;53.550;9.932;2023-08-07T14:59:17;17.40;1.00
837;DHT22;400;53.550;9.932;2023-08-07T15:01:43;17.20;1.00
837;DHT22;400;53.550;9.932;2023-08-07T15:04:10;17.20;1.00
837;DHT22;400;53.550;9.932;2023-08-07T15:06:37;17.00;1.00
837;DHT22;400;53.550;9.932;2023-08-07T15:09:07;17.10;1.00
837;DHT22;400;53.550;9.932;2023-08-07T15:11:34;17.20;1.00
837;DHT22;400;53.550;9.932;2023-08-07T15:14:01;17.40;1.00
837;DHT22;400;53.550;9.932;2023-08-07T15:16:33;17.70;1.00
837;DHT22;400;53.550;9.932;2023-08-07T15:19:01;17.60;1.00
837;DHT22;400;53.550;9.932;2023-08-07T15:21:28;17.90;1.00
837;DHT22;400;53.550;9.932;2023-08-07T15:23:55;17.80;1.00
837;DHT22;400;53.550;9.932;2023-08-07T15:26:24;17.90;1.00
837;DHT22;400;53.550;9.932;2023-08-07T15:28:51;17.70;1.00
837;DHT22;400;53.550;9.932;2023-08-07T15:31:17;17.60;1.00
837;DHT22;400;53.550;9.932;2023-08-07T15:33:44;17.70;1.00
837;DHT22;400;53.550;9.932;2023-08-07T15:36:14;17.70;1.00
837;DHT22;400;53.550;9.932;2023-08-07T15:38:41;17.50;1.00
837;DHT22;400;53.550;9.932;2023-08-07T15:41:10;17.30;1.00
837;DHT22;400;53.550;9.932;2023-08-07T15:43:38;17.30;1.00
837;DHT22;400;53.550;9.932;2023-08-07T15:46:05;17.40;1.00
837;DHT22;400;53.550;9.932;2023-08-07T15:48:32;17.30;1.00
837;DHT22;400;53.550;9.932;2023-08-07T15:50:59;17.40;1.00
837;DHT22;400;53.550;9.932;2023-08-07T15:53:26;17.20;1.00
837;DHT22;400;53.550;9.932;2023-08-07T15:55:53;16.70;1.00
837;DHT22;400;53.550;9.932;2023-08-07T15:58:20;16.60;1.00
837;DHT22;400;53.550;9.932;2023-08-07T16:00:49;16.60;1.00
837;DHT22;400;53.550;9.932;2023-08-07T16:03:16;16.20;1.00
837;DHT22;400;53.550;9.932;2023-08-07T16:05:44;16.10;1.00
837;DHT22;400;53.550;9.932;2023-08-07T16:08:10;15.90;1.00
837;DHT22;400;53.550;9.932;2023-08-07T16:10:37;15.90;1.00
837;DHT22;400;53.550;9.932;2023-08-07T16:13:05;16.00;1.00
837;DHT22;400;53.550;9.932;2023-08-07T16:15:33;16.10;1.00
837;DHT22;400;53.550;9.932;2023-08-07T16:18:03;16.20;1.00
837;DHT22;400;53.550;9.932;2023-08-07T16:20:33;16.40;1.00
837;DHT22;400;53.550;9.932;2023-08-07T16:23:05;16.60;1.00
837;DHT22;400;53.550;9.932;2023-08-07T16:25:34;17.10;1.00
837;DHT22;400;53.550;9.932;2023-08-07T16:28:04;17.90;1.00
837;DHT22;400;53.550;9.932;2023-08-07T16:30:34;18.30;1.00
837;DHT22;400;53.550;9.932;2023-08-07T16:33:02;18.70;1.00
837;DHT22;400;53.550;9.932;2023-08-07T16:35:29;19.70;1.00
837;DHT22;400;53.550;9.932;2023-08-07T16:37:57;20.00;1.00
837;DHT22;400;53.550;9.932;2023-08-07T16:40:24;20.10;1.00
837;DHT22;400;53.550;9.932;2023-08-07T16:42:51;20.10;1.00
837;DHT22;400;53.550;9.932;2023-08-07T16:45:18;20.60;1.00
837;DHT22;400;53.550;9.932;2023-08-07T16:47:51;20.90;1.00
837;DHT22;400;53.550;9.932;2023-08-07T16:50:21;21.30;1.00
837;DHT22;400;53.550;9.932;2023-08-07T16:52:49;20.60;1.00
837;DHT22;400;53.550;9.932;2023-08-07T16:55:16;19.60;1.00
837;DHT22;400;53.550;9.932;2023-08-07T16:57:43;19.30;1.00